createdAt,value
2022-09-23T00:02:10.601Z,76.88
2022-09-23T00:04:38.633Z,77.21
2022-09-23T00:07:06.657Z,77.33
2022-09-23T00:09:34.773Z,77.92
2022-09-23T00:12:08.870Z,78.18
2022-09-23T00:14:39.580Z,78.46
2022-09-23T00:17:07.841Z,78.60
2022-09-23T00:19:36.236Z,78.99
2022-09-23T00:22:04.453Z,79.17
2022-09-23T00:24:33.259Z,79.19
2022-09-23T00:27:02.845Z,78.75
2022-09-23T00:29:31.836Z,78.52
2022-09-23T00:31:59.801Z,78.29
2022-09-23T00:34:27.859Z,78.24
2022-09-23T00:36:55.847Z,77.09
2022-09-23T00:39:24.379Z,77.11
2022-09-23T00:41:52.795Z,76.97
2022-09-23T00:44:47.058Z,77.77
2022-09-23T00:47:24.599Z,78.14
2022-09-23T00:50:03.356Z,78.92
2022-09-23T00:52:32.581Z,79.15
2022-09-23T00:55:06.417Z,78.11
2022-09-23T00:57:37.082Z,77.44
2022-09-23T01:00:09.203Z,78.18
2022-09-23T01:02:38.486Z,78.64
2022-09-23T01:05:09.015Z,79.03
2022-09-23T01:07:37.014Z,79.40
2022-09-23T01:10:07.339Z,79.84
2022-09-23T01:12:59.416Z,79.70
2022-09-23T01:15:40.773Z,79.11
2022-09-23T01:18:26.502Z,78.72
2022-09-23T01:21:06.222Z,79.01
2022-09-23T01:24:29.937Z,79.26
2022-09-23T01:27:17.394Z,78.71
2022-09-23T01:30:29.531Z,78.38
2022-09-23T01:33:14.161Z,79.42
2022-09-23T01:35:55.032Z,79.64
2022-09-23T01:38:36.040Z,79.63
2022-09-23T01:41:17.089Z,80.25
2022-09-23T01:43:58.803Z,80.32
2022-09-23T01:46:33.955Z,80.48
2022-09-23T01:49:14.267Z,80.56
2022-09-23T01:51:49.249Z,80.46
2022-09-23T01:54:26.577Z,80.62
2022-09-23T01:57:01.821Z,80.54
2022-09-23T01:59:37.859Z,80.42
2022-09-23T02:02:15.200Z,80.60
2022-09-23T02:04:54.144Z,80.06
2022-09-23T02:07:32.912Z,79.70
2022-09-23T02:10:11.129Z,80.20
2022-09-23T02:12:45.494Z,80.10
2022-09-23T02:15:20.050Z,80.32
2022-09-23T02:17:54.739Z,78.70
2022-09-23T02:20:31.293Z,79.21
2022-09-23T02:23:08.582Z,79.63
2022-09-23T02:25:50.844Z,79.98
2022-09-23T02:28:28.299Z,79.84
2022-09-23T02:31:08.603Z,80.23
2022-09-23T02:33:43.575Z,80.63
2022-09-23T02:36:26.024Z,80.68
2022-09-23T02:38:59.083Z,80.40
2022-09-23T02:41:36.752Z,79.54
2022-09-23T02:44:09.953Z,79.65
2022-09-23T02:46:38.781Z,80.30
2022-09-23T02:49:14.977Z,80.62
2022-09-23T02:51:45.494Z,80.67
2022-09-23T02:54:19.306Z,80.69
2022-09-23T02:56:49.453Z,79.78
2022-09-23T02:59:20.433Z,80.07
2022-09-23T03:02:14.025Z,80.50
2022-09-23T03:04:56.972Z,80.25
2022-09-23T03:07:36.908Z,80.35
2022-09-23T03:10:16.412Z,80.69
2022-09-23T03:13:05.900Z,81.16
2022-09-23T03:15:42.023Z,81.43
2022-09-23T03:18:19.206Z,80.63
2022-09-23T03:20:53.516Z,80.51
2022-09-23T03:23:29.905Z,81.57
2022-09-23T03:26:05.713Z,81.85
2022-09-23T03:28:37.104Z,81.87
2022-09-23T03:31:06.669Z,81.80
2022-09-23T03:33:39.652Z,81.24
2022-09-23T03:36:26.599Z,80.80
2022-09-23T03:39:06.801Z,80.86
2022-09-23T03:41:43.879Z,81.08
2022-09-23T03:44:12.683Z,81.11
2022-09-23T03:46:42.849Z,80.85
2022-09-23T03:49:17.923Z,79.98
2022-09-23T03:51:45.901Z,79.72
2022-09-23T03:54:15.681Z,80.58
2022-09-23T03:56:44.133Z,79.89
2022-09-23T03:59:12.082Z,80.23
2022-09-23T04:01:41.818Z,80.71
2022-09-23T04:04:10.440Z,80.94
2022-09-23T04:06:38.491Z,80.56
2022-09-23T04:09:06.491Z,80.56
2022-09-23T04:11:36.056Z,81.17
2022-09-23T04:14:04.332Z,81.06
2022-09-23T04:16:32.313Z,80.75
2022-09-23T04:19:00.307Z,80.94
2022-09-23T04:21:30.155Z,81.39
2022-09-23T04:23:58.194Z,81.32
2022-09-23T04:26:26.143Z,81.55
2022-09-23T04:28:56.902Z,81.42
2022-09-23T04:31:25.182Z,81.48
2022-09-23T04:33:54.762Z,81.79
2022-09-23T04:36:23.612Z,82.21
2022-09-23T04:38:52.229Z,81.64
2022-09-23T04:41:23.524Z,80.63
2022-09-23T04:43:51.540Z,80.74
2022-09-23T04:46:21.321Z,81.13
2022-09-23T04:48:49.327Z,81.62
2022-09-23T04:51:20.561Z,81.60
2022-09-23T04:53:51.757Z,82.05
2022-09-23T04:56:22.595Z,82.23
2022-09-23T04:58:51.738Z,82.24
2022-09-23T05:01:24.267Z,81.92
2022-09-23T05:03:54.422Z,81.63
2022-09-23T05:06:23.756Z,80.90
2022-09-23T05:08:54.463Z,80.28
2022-09-23T05:11:24.066Z,80.50
2022-09-23T05:13:54.907Z,80.72
2022-09-23T05:16:27.089Z,80.13
2022-09-23T05:18:55.766Z,79.63
2022-09-23T05:21:27.406Z,79.82
2022-09-23T05:24:00.308Z,80.10
2022-09-23T05:26:31.338Z,80.01
2022-09-23T05:29:00.481Z,80.18
2022-09-23T05:31:31.863Z,79.29
2022-09-23T05:34:01.894Z,78.38
2022-09-23T05:36:37.582Z,78.57
2022-09-23T05:39:08.447Z,78.73
2022-09-23T05:41:38.439Z,79.29
2022-09-23T05:44:06.640Z,79.38
2022-09-23T05:46:37.117Z,79.26
2022-09-23T05:49:05.925Z,79.26
2022-09-23T05:51:35.722Z,79.14
2022-09-23T05:54:05.710Z,78.97
2022-09-23T05:56:35.586Z,78.48
2022-09-23T05:59:05.831Z,77.81
2022-09-23T06:01:38.605Z,76.93
2022-09-23T06:04:14.023Z,75.99
2022-09-23T06:06:43.594Z,76.38
2022-09-23T06:09:14.637Z,75.17
2022-09-23T06:11:43.521Z,74.42
2022-09-23T06:14:14.732Z,74.51
2022-09-23T06:16:44.201Z,74.14
2022-09-23T06:19:12.254Z,73.63
2022-09-23T06:21:41.391Z,73.52
2022-09-23T06:24:12.482Z,72.92
2022-09-23T06:26:42.700Z,73.11
2022-09-23T06:29:12.920Z,73.06
2022-09-23T06:31:42.051Z,72.16
2022-09-23T06:34:14.727Z,70.26
2022-09-23T06:36:45.807Z,70.38
2022-09-23T06:39:15.819Z,70.23
2022-09-23T06:41:45.076Z,69.58
2022-09-23T06:44:13.249Z,68.99
2022-09-23T06:46:41.379Z,66.14
2022-09-23T06:49:11.787Z,64.96
2022-09-23T06:51:40.234Z,65.91
2022-09-23T06:54:08.722Z,65.00
2022-09-23T06:56:39.561Z,63.77
2022-09-23T06:59:08.945Z,63.41
2022-09-23T07:01:36.977Z,64.08
2022-09-23T07:04:05.208Z,64.04
2022-09-23T07:06:34.587Z,63.96
2022-09-23T07:09:03.237Z,64.15
2022-09-23T07:11:31.448Z,63.35
2022-09-23T07:13:59.525Z,62.67
2022-09-23T07:16:27.575Z,63.09
2022-09-23T07:18:56.429Z,62.29
2022-09-23T07:21:24.449Z,62.83
2022-09-23T07:23:55.177Z,61.56
2022-09-23T07:26:23.567Z,61.53
2022-09-23T07:28:56.349Z,61.95
2022-09-23T07:31:37.098Z,61.37
2022-09-23T07:34:07.383Z,61.50
2022-09-23T07:36:37.325Z,61.38
2022-09-23T07:39:07.200Z,60.51
2022-09-23T07:41:35.679Z,60.19
2022-09-23T07:44:05.975Z,59.50
2022-09-23T07:46:37.239Z,59.50
2022-09-23T07:49:06.727Z,59.13
2022-09-23T07:51:38.215Z,59.22
2022-09-23T07:54:11.906Z,58.45
2022-09-23T07:56:40.432Z,58.92
2022-09-23T07:59:11.724Z,58.52
2022-09-23T08:01:42.686Z,58.73
2022-09-23T08:04:14.548Z,58.25
2022-09-23T08:06:43.762Z,58.14
2022-09-23T08:09:14.249Z,58.14
2022-09-23T08:11:42.994Z,58.44
2022-09-23T08:14:13.433Z,58.37
2022-09-23T08:16:42.059Z,58.55
2022-09-23T08:19:10.490Z,58.44
2022-09-23T08:21:40.342Z,58.47
2022-09-23T08:24:08.549Z,58.29
2022-09-23T08:26:38.089Z,58.14
2022-09-23T08:29:06.781Z,58.12
2022-09-23T08:31:34.822Z,57.49
2022-09-23T08:34:03.226Z,55.95
2022-09-23T08:36:33.051Z,55.26
2022-09-23T08:39:01.281Z,55.39
2022-09-23T08:41:40.735Z,55.19
2022-09-23T08:44:17.396Z,54.87
2022-09-23T08:46:54.151Z,54.10
2022-09-23T08:49:29.497Z,54.08
2022-09-23T08:52:01.008Z,53.14
2022-09-23T08:54:32.210Z,53.28
2022-09-23T08:57:06.181Z,53.05
2022-09-23T08:59:43.027Z,53.24
2022-09-23T09:02:19.768Z,52.51
2022-09-23T09:04:54.254Z,52.69
2022-09-23T09:07:36.792Z,52.37
2022-09-23T09:10:16.383Z,52.43
2022-09-23T09:12:48.866Z,52.12
2022-09-23T09:15:24.323Z,52.29
2022-09-23T09:18:02.950Z,52.36
2022-09-23T09:20:57.325Z,52.61
2022-09-23T09:23:35.856Z,52.33
2022-09-23T09:26:05.430Z,52.25
2022-09-23T09:28:41.696Z,51.64
2022-09-23T09:31:26.829Z,50.36
2022-09-23T09:34:03.632Z,49.21
2022-09-23T09:36:45.304Z,48.05
2022-09-23T09:39:15.572Z,48.11
2022-09-23T09:41:50.727Z,48.96
2022-09-23T09:44:28.859Z,48.01
2022-09-23T09:47:22.037Z,47.51
2022-09-23T09:50:00.645Z,48.03
2022-09-23T09:52:31.694Z,48.32
2022-09-23T09:55:26.701Z,47.79
2022-09-23T09:58:01.737Z,47.83
2022-09-23T10:00:43.824Z,48.08
2022-09-23T10:03:40.706Z,47.78
2022-09-23T10:06:19.422Z,47.21
2022-09-23T10:09:19.148Z,46.88
2022-09-23T10:12:15.258Z,46.53
2022-09-23T10:14:43.899Z,47.40
2022-09-23T10:17:21.696Z,47.64
2022-09-23T10:20:00.231Z,47.17
2022-09-23T10:22:34.399Z,46.65
2022-09-23T10:25:09.830Z,47.33
2022-09-23T10:27:38.824Z,48.83
2022-09-23T10:30:22.212Z,46.98
2022-09-23T10:32:54.859Z,46.84
2022-09-23T10:35:25.483Z,46.59
2022-09-23T10:37:55.621Z,46.18
2022-09-23T10:40:49.824Z,46.53
2022-09-23T10:43:45.971Z,47.33
2022-09-23T10:46:39.505Z,45.68
2022-09-23T10:49:48.888Z,45.91
2022-09-23T10:52:45.442Z,46.17
2022-09-23T10:55:34.361Z,45.72
2022-09-23T10:58:28.806Z,45.57
2022-09-23T11:01:17.048Z,45.79
2022-09-23T11:04:42.227Z,45.64
2022-09-23T11:07:25.170Z,44.96
2022-09-23T11:10:35.258Z,44.14
2022-09-23T11:13:24.507Z,43.61
2022-09-23T11:16:06.487Z,44.19
2022-09-23T11:19:00.622Z,44.30
2022-09-23T11:22:01.182Z,44.94
2022-09-23T11:24:50.095Z,43.89
2022-09-23T11:27:37.170Z,42.34
2022-09-23T11:30:11.674Z,43.55
2022-09-23T11:33:26.937Z,42.61
2022-09-23T11:36:03.344Z,42.66
2022-09-23T11:38:41.285Z,42.70
2022-09-23T11:41:20.685Z,44.18
2022-09-23T11:43:54.132Z,43.84
2022-09-23T11:46:36.568Z,43.80
2022-09-23T11:49:13.960Z,44.39
2022-09-23T11:51:54.477Z,44.73
2022-09-23T11:54:29.680Z,44.82
2022-09-23T11:57:07.508Z,44.19
2022-09-23T11:59:46.202Z,45.00
2022-09-23T12:02:30.477Z,45.91
2022-09-23T12:05:06.759Z,45.71
2022-09-23T12:07:53.313Z,45.74
2022-09-23T12:10:24.887Z,45.62
2022-09-23T12:13:06.440Z,45.81
2022-09-23T12:15:53.336Z,44.45
2022-09-23T12:18:47.549Z,45.48
2022-09-23T12:21:53.312Z,45.33
2022-09-23T12:24:51.529Z,46.76
2022-09-23T12:27:33.557Z,45.25
2022-09-23T12:30:13.326Z,44.69
2022-09-23T12:32:43.010Z,44.35
2022-09-23T12:35:24.853Z,44.62
2022-09-23T12:37:53.995Z,44.07
2022-09-23T12:40:38.949Z,43.61
2022-09-23T12:43:07.109Z,43.43
2022-09-23T12:45:41.438Z,42.85
2022-09-23T12:48:45.179Z,42.98
2022-09-23T12:51:20.962Z,42.63
2022-09-23T12:54:27.423Z,43.02
2022-09-23T12:57:04.063Z,43.18
2022-09-23T13:00:16.091Z,41.79
2022-09-23T13:03:15.130Z,41.82
2022-09-23T13:06:08.891Z,42.55
2022-09-23T13:08:42.170Z,42.39
2022-09-23T13:11:28.347Z,41.77
2022-09-23T13:13:59.646Z,40.88
2022-09-23T13:16:34.085Z,40.60
2022-09-23T13:19:05.414Z,40.57
2022-09-23T13:22:09.056Z,41.19
2022-09-23T13:24:46.865Z,41.14
2022-09-23T13:27:22.978Z,40.63
2022-09-23T13:30:00.101Z,40.92
2022-09-23T13:32:33.869Z,40.49
2022-09-23T13:35:07.453Z,40.59
2022-09-23T13:37:47.383Z,40.81
2022-09-23T13:40:23.771Z,40.58
2022-09-23T13:42:59.076Z,40.16
2022-09-23T13:45:30.855Z,40.00
2022-09-23T13:48:07.307Z,39.76
2022-09-23T13:50:41.539Z,40.24
2022-09-23T13:53:14.253Z,39.54
2022-09-23T13:55:42.432Z,39.20
2022-09-23T13:58:19.877Z,39.25
2022-09-23T14:00:49.636Z,38.17
2022-09-23T14:03:24.227Z,38.70
2022-09-23T14:05:56.289Z,38.92
2022-09-23T14:08:25.860Z,40.12
2022-09-23T14:10:55.295Z,40.70
2022-09-23T14:13:27.961Z,39.62
2022-09-23T14:15:59.197Z,40.27
2022-09-23T14:18:40.046Z,41.25
2022-09-23T14:21:34.814Z,42.34
2022-09-23T14:24:19.380Z,42.56
2022-09-23T14:26:50.663Z,42.68
2022-09-23T14:29:21.924Z,42.56
2022-09-23T14:31:57.756Z,42.06
2022-09-23T14:34:48.430Z,41.92
2022-09-23T14:37:47.425Z,42.07
2022-09-23T14:40:19.910Z,41.17
2022-09-23T14:42:52.362Z,40.84
2022-09-23T14:45:26.317Z,40.98
2022-09-23T14:48:00.564Z,41.80
2022-09-23T14:50:39.606Z,41.68
2022-09-23T14:53:40.279Z,42.39
2022-09-23T14:56:19.048Z,42.06
2022-09-23T14:58:56.773Z,42.29
2022-09-23T15:01:36.530Z,42.49
2022-09-23T15:04:32.245Z,42.52
2022-09-23T15:07:07.516Z,42.63
2022-09-23T15:09:41.607Z,42.41
2022-09-23T15:12:16.327Z,42.65
2022-09-23T15:14:50.594Z,42.87
2022-09-23T15:17:32.499Z,42.83
2022-09-23T15:20:06.184Z,43.13
2022-09-23T15:22:44.285Z,43.51
2022-09-23T15:25:20.455Z,43.45
2022-09-23T15:28:02.403Z,43.57
2022-09-23T15:30:31.542Z,43.20
2022-09-23T15:33:00.045Z,43.40
2022-09-23T15:35:31.960Z,42.81
2022-09-23T15:38:03.263Z,41.96
2022-09-23T15:40:35.923Z,42.25
2022-09-23T15:43:20.632Z,43.08
2022-09-23T15:45:53.454Z,43.57
2022-09-23T15:48:26.813Z,43.91
2022-09-23T15:50:55.822Z,44.28
2022-09-23T15:53:27.279Z,44.64
2022-09-23T15:55:58.542Z,45.33
2022-09-23T15:58:27.618Z,45.73
2022-09-23T16:00:57.454Z,45.93
2022-09-23T16:03:28.998Z,46.16
2022-09-23T16:06:02.264Z,46.31
2022-09-23T16:08:32.759Z,46.18
2022-09-23T16:11:02.470Z,46.29
2022-09-23T16:13:30.473Z,46.55
2022-09-23T16:15:58.524Z,46.48
2022-09-23T16:18:26.624Z,46.74
2022-09-23T16:20:54.755Z,46.72
2022-09-23T16:23:35.382Z,47.29
2022-09-23T16:26:08.948Z,47.57
2022-09-23T16:28:36.928Z,47.91
2022-09-23T16:31:05.230Z,48.04
2022-09-23T16:33:33.400Z,48.48
2022-09-23T16:36:02.099Z,48.93
2022-09-23T16:38:31.112Z,49.10
2022-09-23T16:41:00.185Z,49.38
2022-09-23T16:43:31.560Z,49.38
2022-09-23T16:45:59.803Z,49.72
2022-09-23T16:48:27.895Z,49.95
2022-09-23T16:50:55.891Z,50.12
2022-09-23T16:53:24.457Z,50.58
2022-09-23T16:55:53.657Z,50.68
2022-09-23T16:58:21.669Z,51.21
2022-09-23T17:01:08.657Z,51.62
2022-09-23T17:03:42.797Z,52.65
2022-09-23T17:06:13.217Z,52.68
2022-09-23T17:08:42.009Z,53.60
2022-09-23T17:11:11.660Z,54.02
2022-09-23T17:13:42.262Z,54.48
2022-09-23T17:16:22.055Z,54.57
2022-09-23T17:18:50.111Z,54.68
2022-09-23T17:21:18.452Z,55.28
2022-09-23T17:23:46.466Z,55.33
2022-09-23T17:26:15.092Z,56.42
2022-09-23T17:28:43.032Z,56.32
2022-09-23T17:31:12.519Z,56.60
2022-09-23T17:33:41.164Z,56.36
2022-09-23T17:36:11.626Z,56.94
2022-09-23T17:38:40.223Z,57.22
2022-09-23T17:41:09.487Z,57.55
2022-09-23T17:43:38.441Z,57.92
2022-09-23T17:46:09.992Z,58.24
2022-09-23T17:48:43.157Z,58.58
2022-09-23T17:51:14.697Z,58.37
2022-09-23T17:53:46.511Z,58.37
2022-09-23T17:56:19.323Z,58.37
2022-09-23T17:58:49.555Z,58.95
2022-09-23T18:01:20.865Z,58.99
2022-09-23T18:03:55.298Z,59.21
2022-09-23T18:06:26.038Z,59.20
2022-09-23T18:08:55.852Z,59.55
2022-09-23T18:11:26.893Z,59.22
2022-09-23T18:13:56.964Z,59.29
2022-09-23T18:16:28.147Z,59.30
2022-09-23T18:19:00.169Z,59.34
2022-09-23T18:21:31.739Z,59.86
2022-09-23T18:26:50.463Z,61.09
2022-09-23T18:29:19.539Z,61.30
2022-09-23T18:31:49.132Z,61.55
2022-09-23T18:34:18.961Z,61.50
2022-09-23T18:36:47.742Z,61.71
2022-09-23T18:39:16.687Z,61.78
2022-09-23T18:41:44.763Z,61.66
2022-09-23T18:44:12.901Z,61.68
2022-09-23T18:46:40.962Z,61.62
2022-09-23T18:49:26.982Z,61.65
2022-09-23T18:51:58.598Z,61.64
2022-09-23T18:54:30.330Z,61.85
2022-09-23T18:56:59.193Z,61.95
2022-09-23T18:59:29.487Z,62.24
2022-09-23T19:01:58.636Z,62.72
2022-09-23T19:04:28.898Z,62.67
2022-09-23T19:06:58.851Z,62.97
2022-09-23T19:09:26.861Z,63.10
2022-09-23T19:11:55.052Z,63.21
2022-09-23T19:14:23.491Z,63.31
2022-09-23T19:16:51.927Z,63.33
2022-09-23T19:19:20.202Z,63.54
2022-09-23T19:21:48.206Z,63.41
2022-09-23T19:24:20.040Z,63.46
2022-09-23T19:26:48.483Z,63.75
2022-09-23T19:29:21.619Z,63.59
2022-09-23T19:31:50.957Z,63.67
2022-09-23T19:34:23.710Z,63.66
2022-09-23T19:36:52.731Z,63.60
2022-09-23T19:39:24.465Z,62.86
2022-09-23T19:41:54.456Z,62.76
2022-09-23T19:44:25.020Z,62.84
2022-09-23T19:46:56.831Z,62.86
2022-09-23T19:49:26.213Z,62.96
2022-09-23T19:51:56.564Z,62.74
2022-09-23T19:54:27.334Z,62.60
2022-09-23T19:56:56.233Z,62.20
2022-09-23T19:59:26.173Z,62.19
2022-09-23T20:01:54.245Z,62.77
2022-09-23T20:04:22.775Z,62.79
2022-09-23T20:06:50.804Z,62.50
2022-09-23T20:09:18.872Z,62.67
2022-09-23T20:11:48.269Z,62.70
2022-09-23T20:14:17.803Z,62.75
2022-09-23T20:16:46.194Z,62.51
2022-09-23T20:19:14.713Z,62.65
2022-09-23T20:21:42.752Z,62.52
2022-09-23T20:24:12.301Z,62.65
2022-09-23T20:26:57.868Z,63.13
2022-09-23T20:29:27.212Z,62.87
2022-09-23T20:31:58.598Z,62.03
2022-09-23T20:34:27.284Z,62.15
2022-09-23T20:36:55.467Z,62.58
2022-09-23T20:39:23.460Z,62.88
2022-09-23T20:41:52.260Z,62.93
2022-09-23T20:44:20.415Z,63.14
2022-09-23T20:46:51.247Z,62.19
2022-09-23T20:49:20.723Z,62.55
2022-09-23T20:51:49.436Z,62.70
2022-09-23T20:54:19.075Z,63.00
2022-09-23T20:56:47.284Z,63.17
2022-09-23T20:59:17.512Z,63.26
2022-09-23T21:01:45.591Z,63.57
2022-09-23T21:04:15.083Z,63.41
2022-09-23T21:06:43.105Z,63.52
2022-09-23T21:09:11.120Z,64.00
2022-09-23T21:11:39.138Z,64.21
2022-09-23T21:14:07.440Z,64.06
2022-09-23T21:16:35.787Z,64.16
2022-09-23T21:19:04.009Z,64.43
2022-09-23T21:21:33.392Z,63.94
2022-09-23T21:24:24.550Z,64.09
2022-09-23T21:26:51.318Z,64.28
2022-09-23T21:29:19.416Z,64.38
2022-09-23T21:31:49.471Z,64.64
2022-09-23T21:34:17.803Z,65.00
2022-09-23T21:36:49.343Z,64.85
2022-09-23T21:39:17.620Z,64.83
2022-09-23T21:41:45.605Z,65.00
2022-09-23T21:44:13.794Z,65.31
2022-09-23T21:46:41.920Z,65.08
2022-09-23T21:49:10.061Z,65.24
2022-09-23T21:51:41.433Z,65.52
2022-09-23T21:54:15.588Z,65.61
2022-09-23T21:56:44.998Z,65.70
2022-09-23T21:59:13.486Z,65.77
2022-09-23T22:01:44.865Z,65.70
2022-09-23T22:04:17.324Z,65.58
2022-09-23T22:06:46.620Z,66.02
2022-09-23T22:09:19.396Z,66.21
2022-09-23T22:12:07.709Z,66.33
2022-09-23T22:14:38.771Z,66.77
2022-09-23T22:17:10.458Z,67.00
2022-09-23T22:19:44.251Z,67.18
2022-09-23T22:22:17.908Z,67.60
2022-09-23T22:24:49.066Z,67.66
2022-09-23T22:27:20.269Z,67.96
2022-09-23T22:30:06.673Z,68.33
2022-09-23T22:32:46.109Z,68.69
2022-09-23T22:35:18.233Z,68.73
2022-09-23T22:37:47.954Z,68.47
2022-09-23T22:40:17.583Z,68.66
2022-09-23T22:42:46.596Z,68.66
2022-09-23T22:45:15.040Z,68.85
2022-09-23T22:47:45.252Z,69.08
2022-09-23T22:50:15.128Z,68.74
2022-09-23T22:52:43.572Z,68.90
2022-09-23T22:55:12.812Z,68.87
2022-09-23T22:57:42.221Z,68.95
2022-09-23T23:00:12.661Z,69.02
2022-09-23T23:02:42.243Z,69.48
2022-09-23T23:05:10.741Z,69.17
2022-09-23T23:07:38.885Z,69.15
2022-09-23T23:10:10.075Z,69.54
2022-09-23T23:12:40.053Z,69.25
2022-09-23T23:15:12.830Z,69.08
2022-09-23T23:17:43.384Z,69.17
2022-09-23T23:20:11.689Z,69.80
2022-09-23T23:22:39.700Z,69.91
2022-09-23T23:25:09.626Z,69.94
2022-09-23T23:27:37.645Z,70.26
2022-09-23T23:30:08.239Z,70.09
2022-09-23T23:32:37.689Z,70.08
2022-09-23T23:35:07.367Z,70.72
2022-09-23T23:37:35.340Z,70.26
2022-09-23T23:40:04.039Z,70.20
2022-09-23T23:42:32.521Z,70.64
2022-09-23T23:45:00.533Z,70.66
2022-09-23T23:47:28.534Z,70.74
2022-09-23T23:49:57.897Z,70.95
2022-09-23T23:52:26.049Z,71.50
2022-09-23T23:54:54.016Z,71.22
2022-09-23T23:57:22.000Z,71.54
2022-09-23T23:59:49.943Z,71.81
